sensor_id;sensor_type;location;lat;lon;timestamp;temperature;humidity
16417;DHT22;8317;52.186;5.688;2023-07-31T00:01:22;15.60;99.90
16417;DHT22;8317;52.186;5.688;2023-07-31T00:03:49;15.60;99.90
16417;DHT22;8317;52.186;5.688;2023-07-31T00:06:16;15.70;99.90
16417;DHT22;8317;52.186;5.688;2023-07-31T00:08:43;15.70;99.90
16417;DHT22;8317;52.186;5.688;2023-07-31T00:11:10;15.70;99.90
16417;DHT22;8317;52.186;5.688;2023-07-31T00:13:38;15.70;99.90
16417;DHT22;8317;52.186;5.688;2023-07-31T00:16:05;15.80;99.90
16417;DHT22;8317;52.186;5.688;2023-07-31T00:18:32;15.80;99.90
16417;DHT22;8317;52.186;5.688;2023-07-31T00:20:59;15.80;99.90
16417;DHT22;8317;52.186;5.688;2023-07-31T00:23:26;15.70;99.90
16417;DHT22;8317;52.186;5.688;2023-07-31T00:25:52;15.80;99.90
16417;DHT22;8317;52.186;5.688;2023-07-31T00:28:19;15.80;99.90
16417;DHT22;8317;52.186;5.688;2023-07-31T00:30:47;15.80;99.90
16417;DHT22;8317;52.186;5.688;2023-07-31T00:33:14;15.80;99.90
16417;DHT22;8317;52.186;5.688;2023-07-31T00:35:41;15.80;99.90
16417;DHT22;8317;52.186;5.688;2023-07-31T00:38:08;15.80;99.90
16417;DHT22;8317;52.186;5.688;2023-07-31T00:40:35;15.80;99.90
16417;DHT22;8317;52.186;5.688;2023-07-31T00:43:03;15.80;99.90
16417;DHT22;8317;52.186;5.688;2023-07-31T00:45:30;15.80;99.90
16417;DHT22;8317;52.186;5.688;2023-07-31T00:47:59;15.80;99.90
16417;DHT22;8317;52.186;5.688;2023-07-31T00:50:27;15.90;99.90
16417;DHT22;8317;52.186;5.688;2023-07-31T00:52:54;15.90;99.90
16417;DHT22;8317;52.186;5.688;2023-07-31T00:55:21;15.90;99.90
16417;DHT22;8317;52.186;5.688;2023-07-31T00:57:49;15.90;99.90
16417;DHT22;8317;52.186;5.688;2023-07-31T01:00:17;15.90;99.90
16417;DHT22;8317;52.186;5.688;2023-07-31T01:02:44;15.90;99.90
16417;DHT22;8317;52.186;5.688;2023-07-31T01:05:12;15.90;99.90
16417;DHT22;8317;52.186;5.688;2023-07-31T01:07:44;15.90;99.90
16417;DHT22;8317;52.186;5.688;2023-07-31T01:10:16;16.10;99.90
16417;DHT22;8317;52.186;5.688;2023-07-31T01:12:48;16.10;99.90
16417;DHT22;8317;52.186;5.688;2023-07-31T01:15:15;16.00;99.90
16417;DHT22;8317;52.186;5.688;2023-07-31T01:17:43;16.10;99.90
16417;DHT22;8317;52.186;5.688;2023-07-31T01:20:15;16.10;99.90
16417;DHT22;8317;52.186;5.688;2023-07-31T01:23:08;16.20;99.90
16417;DHT22;8317;52.186;5.688;2023-07-31T01:26:03;16.20;99.90
16417;DHT22;8317;52.186;5.688;2023-07-31T01:28:37;16.30;99.90
16417;DHT22;8317;52.186;5.688;2023-07-31T01:31:07;16.30;99.90
16417;DHT22;8317;52.186;5.688;2023-07-31T01:33:36;16.30;99.90
16417;DHT22;8317;52.186;5.688;2023-07-31T01:36:04;16.30;99.90
16417;DHT22;8317;52.186;5.688;2023-07-31T01:38:32;16.30;99.90
16417;DHT22;8317;52.186;5.688;2023-07-31T01:41:00;16.40;99.90
16417;DHT22;8317;52.186;5.688;2023-07-31T01:43:27;16.40;99.90
16417;DHT22;8317;52.186;5.688;2023-07-31T01:45:54;16.50;99.90
16417;DHT22;8317;52.186;5.688;2023-07-31T01:48:21;16.50;99.90
16417;DHT22;8317;52.186;5.688;2023-07-31T01:50:48;16.50;99.90
16417;DHT22;8317;52.186;5.688;2023-07-31T01:53:15;16.50;99.90
16417;DHT22;8317;52.186;5.688;2023-07-31T01:55:42;16.60;99.90
16417;DHT22;8317;52.186;5.688;2023-07-31T01:58:10;16.50;99.90
16417;DHT22;8317;52.186;5.688;2023-07-31T02:00:37;16.50;99.90
16417;DHT22;8317;52.186;5.688;2023-07-31T02:03:04;16.50;99.90
16417;DHT22;8317;52.186;5.688;2023-07-31T02:05:30;16.40;99.90
16417;DHT22;8317;52.186;5.688;2023-07-31T02:07:57;16.40;99.90
16417;DHT22;8317;52.186;5.688;2023-07-31T02:10:24;16.40;99.90
16417;DHT22;8317;52.186;5.688;2023-07-31T02:12:51;16.30;99.90
16417;DHT22;8317;52.186;5.688;2023-07-31T02:15:19;16.40;99.90
16417;DHT22;8317;52.186;5.688;2023-07-31T02:17:47;16.40;99.90
16417;DHT22;8317;52.186;5.688;2023-07-31T02:20:13;16.40;99.90
16417;DHT22;8317;52.186;5.688;2023-07-31T02:22:40;16.40;99.90
16417;DHT22;8317;52.186;5.688;2023-07-31T02:25:08;16.50;99.90
16417;DHT22;8317;52.186;5.688;2023-07-31T02:27:35;16.50;99.90
16417;DHT22;8317;52.186;5.688;2023-07-31T02:30:02;16.50;99.90
16417;DHT22;8317;52.186;5.688;2023-07-31T02:32:30;16.60;99.90
16417;DHT22;8317;52.186;5.688;2023-07-31T02:34:57;16.60;99.90
16417;DHT22;8317;52.186;5.688;2023-07-31T02:37:24;16.70;99.90
16417;DHT22;8317;52.186;5.688;2023-07-31T02:39:51;16.70;99.90
16417;DHT22;8317;52.186;5.688;2023-07-31T02:42:18;16.60;99.90
16417;DHT22;8317;52.186;5.688;2023-07-31T02:44:45;16.60;99.90
16417;DHT22;8317;52.186;5.688;2023-07-31T02:47:12;16.60;99.90
16417;DHT22;8317;52.186;5.688;2023-07-31T02:49:40;16.70;99.90
16417;DHT22;8317;52.186;5.688;2023-07-31T02:52:07;16.60;99.90
16417;DHT22;8317;52.186;5.688;2023-07-31T02:54:34;16.70;99.90
16417;DHT22;8317;52.186;5.688;2023-07-31T02:57:01;16.70;99.90
16417;DHT22;8317;52.186;5.688;2023-07-31T02:59:28;16.70;99.90
16417;DHT22;8317;52.186;5.688;2023-07-31T03:01:55;16.70;99.90
16417;DHT22;8317;52.186;5.688;2023-07-31T03:04:22;16.60;99.90
16417;DHT22;8317;52.186;5.688;2023-07-31T03:06:50;16.60;99.90
16417;DHT22;8317;52.186;5.688;2023-07-31T03:09:17;16.60;99.90
16417;DHT22;8317;52.186;5.688;2023-07-31T03:11:44;16.60;99.90
16417;DHT22;8317;52.186;5.688;2023-07-31T03:14:11;16.70;99.90
16417;DHT22;8317;52.186;5.688;2023-07-31T03:16:37;16.70;99.90
16417;DHT22;8317;52.186;5.688;2023-07-31T03:19:04;16.60;99.90
16417;DHT22;8317;52.186;5.688;2023-07-31T03:21:31;16.70;99.90
16417;DHT22;8317;52.186;5.688;2023-07-31T03:23:59;16.60;99.90
16417;DHT22;8317;52.186;5.688;2023-07-31T03:26:26;16.60;99.90
16417;DHT22;8317;52.186;5.688;2023-07-31T03:28:53;16.60;99.90
16417;DHT22;8317;52.186;5.688;2023-07-31T03:31:20;16.60;99.90
16417;DHT22;8317;52.186;5.688;2023-07-31T03:33:47;16.60;99.90
16417;DHT22;8317;52.186;5.688;2023-07-31T03:36:14;16.60;99.90
16417;DHT22;8317;52.186;5.688;2023-07-31T03:38:41;16.60;99.90
16417;DHT22;8317;52.186;5.688;2023-07-31T03:41:09;16.60;99.90
16417;DHT22;8317;52.186;5.688;2023-07-31T03:43:36;16.60;99.90
16417;DHT22;8317;52.186;5.688;2023-07-31T03:46:03;16.60;99.90
16417;DHT22;8317;52.186;5.688;2023-07-31T03:48:30;16.70;99.90
16417;DHT22;8317;52.186;5.688;2023-07-31T03:50:57;16.60;99.90
16417;DHT22;8317;52.186;5.688;2023-07-31T03:53:24;16.60;99.90
16417;DHT22;8317;52.186;5.688;2023-07-31T03:55:50;16.50;99.90
16417;DHT22;8317;52.186;5.688;2023-07-31T03:58:19;16.50;99.90
16417;DHT22;8317;52.186;5.688;2023-07-31T04:00:46;16.60;99.90
16417;DHT22;8317;52.186;5.688;2023-07-31T04:03:13;16.60;99.90
16417;DHT22;8317;52.186;5.688;2023-07-31T04:05:40;16.50;99.90
16417;DHT22;8317;52.186;5.688;2023-07-31T04:08:07;16.50;99.90
16417;DHT22;8317;52.186;5.688;2023-07-31T04:10:34;16.50;99.90
16417;DHT22;8317;52.186;5.688;2023-07-31T04:13:01;16.50;99.90
16417;DHT22;8317;52.186;5.688;2023-07-31T04:15:29;16.50;99.90
16417;DHT22;8317;52.186;5.688;2023-07-31T04:17:56;16.50;99.90
16417;DHT22;8317;52.186;5.688;2023-07-31T04:20:23;16.50;99.90
16417;DHT22;8317;52.186;5.688;2023-07-31T04:22:50;16.50;99.90
16417;DHT22;8317;52.186;5.688;2023-07-31T04:25:17;16.60;99.90
16417;DHT22;8317;52.186;5.688;2023-07-31T04:27:44;16.50;99.90
16417;DHT22;8317;52.186;5.688;2023-07-31T04:30:10;16.50;99.90
16417;DHT22;8317;52.186;5.688;2023-07-31T04:32:39;16.50;99.90
16417;DHT22;8317;52.186;5.688;2023-07-31T04:35:06;16.50;99.90
16417;DHT22;8317;52.186;5.688;2023-07-31T04:37:33;16.50;99.90
16417;DHT22;8317;52.186;5.688;2023-07-31T04:40:00;16.50;99.90
16417;DHT22;8317;52.186;5.688;2023-07-31T04:42:27;16.50;99.90
16417;DHT22;8317;52.186;5.688;2023-07-31T04:44:54;16.40;99.90
16417;DHT22;8317;52.186;5.688;2023-07-31T04:47:21;16.40;99.90
16417;DHT22;8317;52.186;5.688;2023-07-31T04:49:49;16.50;99.90
16417;DHT22;8317;52.186;5.688;2023-07-31T04:52:16;16.50;99.90
16417;DHT22;8317;52.186;5.688;2023-07-31T04:54:42;16.40;99.90
16417;DHT22;8317;52.186;5.688;2023-07-31T04:57:09;16.50;99.90
16417;DHT22;8317;52.186;5.688;2023-07-31T04:59:36;16.40;99.90
16417;DHT22;8317;52.186;5.688;2023-07-31T05:02:04;16.40;99.90
16417;DHT22;8317;52.186;5.688;2023-07-31T05:04:31;16.40;99.90
16417;DHT22;8317;52.186;5.688;2023-07-31T05:06:59;16.40;99.90
16417;DHT22;8317;52.186;5.688;2023-07-31T05:09:26;16.40;99.90
16417;DHT22;8317;52.186;5.688;2023-07-31T05:11:52;16.40;99.90
16417;DHT22;8317;52.186;5.688;2023-07-31T05:14:19;16.40;99.90
16417;DHT22;8317;52.186;5.688;2023-07-31T05:16:46;16.40;99.90
16417;DHT22;8317;52.186;5.688;2023-07-31T05:19:13;16.30;99.90
16417;DHT22;8317;52.186;5.688;2023-07-31T05:21:40;16.30;99.90
16417;DHT22;8317;52.186;5.688;2023-07-31T05:24:09;16.30;99.90
16417;DHT22;8317;52.186;5.688;2023-07-31T05:26:36;16.30;99.90
16417;DHT22;8317;52.186;5.688;2023-07-31T05:29:03;16.30;99.90
16417;DHT22;8317;52.186;5.688;2023-07-31T05:31:30;16.30;99.90
16417;DHT22;8317;52.186;5.688;2023-07-31T05:33:58;16.20;99.90
16417;DHT22;8317;52.186;5.688;2023-07-31T05:36:24;16.20;99.90
16417;DHT22;8317;52.186;5.688;2023-07-31T05:38:51;16.30;99.90
16417;DHT22;8317;52.186;5.688;2023-07-31T05:41:20;16.20;99.90
16417;DHT22;8317;52.186;5.688;2023-07-31T05:43:46;16.30;99.90
16417;DHT22;8317;52.186;5.688;2023-07-31T05:46:13;16.30;99.90
16417;DHT22;8317;52.186;5.688;2023-07-31T05:48:40;16.20;99.90
16417;DHT22;8317;52.186;5.688;2023-07-31T05:51:07;16.20;99.90
16417;DHT22;8317;52.186;5.688;2023-07-31T05:53:34;16.30;99.90
16417;DHT22;8317;52.186;5.688;2023-07-31T05:56:03;16.20;99.90
16417;DHT22;8317;52.186;5.688;2023-07-31T05:58:32;16.30;99.90
16417;DHT22;8317;52.186;5.688;2023-07-31T06:00:58;16.30;99.90
16417;DHT22;8317;52.186;5.688;2023-07-31T06:03:25;16.20;99.90
16417;DHT22;8317;52.186;5.688;2023-07-31T06:05:52;16.20;99.90
16417;DHT22;8317;52.186;5.688;2023-07-31T06:08:19;16.10;99.90
16417;DHT22;8317;52.186;5.688;2023-07-31T06:10:46;16.30;99.90
16417;DHT22;8317;52.186;5.688;2023-07-31T06:13:13;16.20;99.90
16417;DHT22;8317;52.186;5.688;2023-07-31T06:15:41;16.20;99.90
16417;DHT22;8317;52.186;5.688;2023-07-31T06:18:08;16.20;99.90
16417;DHT22;8317;52.186;5.688;2023-07-31T06:20:36;16.20;99.90
16417;DHT22;8317;52.186;5.688;2023-07-31T06:23:03;16.20;99.90
16417;DHT22;8317;52.186;5.688;2023-07-31T06:25:29;16.30;99.90
16417;DHT22;8317;52.186;5.688;2023-07-31T06:27:57;16.30;99.90
16417;DHT22;8317;52.186;5.688;2023-07-31T06:30:24;16.40;99.90
16417;DHT22;8317;52.186;5.688;2023-07-31T06:32:52;16.40;99.90
16417;DHT22;8317;52.186;5.688;2023-07-31T06:35:19;16.40;99.90
16417;DHT22;8317;52.186;5.688;2023-07-31T06:37:46;16.40;99.90
16417;DHT22;8317;52.186;5.688;2023-07-31T06:40:13;16.40;99.90
16417;DHT22;8317;52.186;5.688;2023-07-31T06:42:39;16.50;99.90
16417;DHT22;8317;52.186;5.688;2023-07-31T06:45:07;16.50;99.90
16417;DHT22;8317;52.186;5.688;2023-07-31T06:47:34;16.30;99.90
16417;DHT22;8317;52.186;5.688;2023-07-31T06:50:03;16.40;99.90
16417;DHT22;8317;52.186;5.688;2023-07-31T06:52:30;16.40;99.90
16417;DHT22;8317;52.186;5.688;2023-07-31T06:55:01;16.50;99.90
16417;DHT22;8317;52.186;5.688;2023-07-31T06:57:29;16.40;99.90
16417;DHT22;8317;52.186;5.688;2023-07-31T06:59:56;16.40;99.90
16417;DHT22;8317;52.186;5.688;2023-07-31T07:02:23;16.50;99.90
16417;DHT22;8317;52.186;5.688;2023-07-31T07:04:50;16.50;99.90
16417;DHT22;8317;52.186;5.688;2023-07-31T07:07:19;16.60;99.90
16417;DHT22;8317;52.186;5.688;2023-07-31T07:09:45;16.50;99.90
16417;DHT22;8317;52.186;5.688;2023-07-31T07:12:12;16.60;99.90
16417;DHT22;8317;52.186;5.688;2023-07-31T07:14:39;16.60;99.90
16417;DHT22;8317;52.186;5.688;2023-07-31T07:17:06;16.60;99.90
16417;DHT22;8317;52.186;5.688;2023-07-31T07:19:33;16.60;99.90
16417;DHT22;8317;52.186;5.688;2023-07-31T07:22:00;16.70;99.90
16417;DHT22;8317;52.186;5.688;2023-07-31T07:24:29;16.70;99.90
16417;DHT22;8317;52.186;5.688;2023-07-31T07:26:56;16.70;99.90
16417;DHT22;8317;52.186;5.688;2023-07-31T07:29:23;16.80;99.90
16417;DHT22;8317;52.186;5.688;2023-07-31T07:31:49;16.70;99.90
16417;DHT22;8317;52.186;5.688;2023-07-31T07:34:16;16.80;99.90
16417;DHT22;8317;52.186;5.688;2023-07-31T07:36:43;16.80;99.90
16417;DHT22;8317;52.186;5.688;2023-07-31T07:39:10;16.70;99.90
16417;DHT22;8317;52.186;5.688;2023-07-31T07:41:39;16.80;99.90
16417;DHT22;8317;52.186;5.688;2023-07-31T07:44:06;16.80;99.90
16417;DHT22;8317;52.186;5.688;2023-07-31T07:46:33;16.90;99.90
16417;DHT22;8317;52.186;5.688;2023-07-31T07:48:59;16.90;99.90
16417;DHT22;8317;52.186;5.688;2023-07-31T07:51:26;16.80;99.90
16417;DHT22;8317;52.186;5.688;2023-07-31T07:53:55;16.80;99.90
16417;DHT22;8317;52.186;5.688;2023-07-31T07:56:23;16.80;99.90
16417;DHT22;8317;52.186;5.688;2023-07-31T07:58:52;17.00;99.90
16417;DHT22;8317;52.186;5.688;2023-07-31T08:01:19;17.00;99.90
16417;DHT22;8317;52.186;5.688;2023-07-31T08:03:46;17.00;99.90
16417;DHT22;8317;52.186;5.688;2023-07-31T08:06:13;17.00;99.90
16417;DHT22;8317;52.186;5.688;2023-07-31T08:08:40;17.00;99.90
16417;DHT22;8317;52.186;5.688;2023-07-31T08:11:07;17.00;99.90
16417;DHT22;8317;52.186;5.688;2023-07-31T08:13:34;17.20;99.90
16417;DHT22;8317;52.186;5.688;2023-07-31T08:16:03;17.00;99.90
16417;DHT22;8317;52.186;5.688;2023-07-31T08:18:31;17.10;99.90
16417;DHT22;8317;52.186;5.688;2023-07-31T08:20:58;17.10;99.90
16417;DHT22;8317;52.186;5.688;2023-07-31T08:23:25;17.20;99.90
16417;DHT22;8317;52.186;5.688;2023-07-31T08:25:52;17.10;99.90
16417;DHT22;8317;52.186;5.688;2023-07-31T08:28:19;17.10;99.90
16417;DHT22;8317;52.186;5.688;2023-07-31T08:30:46;17.20;99.90
16417;DHT22;8317;52.186;5.688;2023-07-31T08:33:14;17.20;99.90
16417;DHT22;8317;52.186;5.688;2023-07-31T08:35:41;17.20;99.90
16417;DHT22;8317;52.186;5.688;2023-07-31T08:38:07;17.20;99.90
16417;DHT22;8317;52.186;5.688;2023-07-31T08:40:36;17.30;99.90
16417;DHT22;8317;52.186;5.688;2023-07-31T08:43:03;17.30;99.90
16417;DHT22;8317;52.186;5.688;2023-07-31T08:45:31;17.30;99.90
16417;DHT22;8317;52.186;5.688;2023-07-31T08:47:59;17.40;99.90
16417;DHT22;8317;52.186;5.688;2023-07-31T08:50:27;17.40;99.90
16417;DHT22;8317;52.186;5.688;2023-07-31T08:52:54;17.40;99.90
16417;DHT22;8317;52.186;5.688;2023-07-31T08:55:21;17.50;99.90
16417;DHT22;8317;52.186;5.688;2023-07-31T08:57:51;17.40;99.90
16417;DHT22;8317;52.186;5.688;2023-07-31T09:00:20;17.50;99.90
16417;DHT22;8317;52.186;5.688;2023-07-31T09:02:54;17.50;99.90
16417;DHT22;8317;52.186;5.688;2023-07-31T09:05:23;17.60;99.90
16417;DHT22;8317;52.186;5.688;2023-07-31T09:07:51;17.60;99.90
16417;DHT22;8317;52.186;5.688;2023-07-31T09:10:18;17.50;99.90
16417;DHT22;8317;52.186;5.688;2023-07-31T09:12:46;17.60;99.90
16417;DHT22;8317;52.186;5.688;2023-07-31T09:15:13;17.60;99.90
16417;DHT22;8317;52.186;5.688;2023-07-31T09:17:40;17.50;99.90
16417;DHT22;8317;52.186;5.688;2023-07-31T09:20:14;17.60;99.90
16417;DHT22;8317;52.186;5.688;2023-07-31T09:22:42;17.60;99.90
16417;DHT22;8317;52.186;5.688;2023-07-31T09:25:18;17.70;99.90
16417;DHT22;8317;52.186;5.688;2023-07-31T09:27:49;17.70;99.90
16417;DHT22;8317;52.186;5.688;2023-07-31T09:30:17;17.70;99.90
16417;DHT22;8317;52.186;5.688;2023-07-31T09:32:46;17.70;99.90
16417;DHT22;8317;52.186;5.688;2023-07-31T09:35:14;17.70;99.90
16417;DHT22;8317;52.186;5.688;2023-07-31T09:37:48;17.70;99.90
16417;DHT22;8317;52.186;5.688;2023-07-31T09:40:28;17.80;99.90
16417;DHT22;8317;52.186;5.688;2023-07-31T09:43:00;17.90;99.90
16417;DHT22;8317;52.186;5.688;2023-07-31T09:45:28;17.90;99.90
16417;DHT22;8317;52.186;5.688;2023-07-31T09:47:55;17.80;99.90
16417;DHT22;8317;52.186;5.688;2023-07-31T09:50:23;17.80;99.90
16417;DHT22;8317;52.186;5.688;2023-07-31T09:52:50;17.90;99.90
16417;DHT22;8317;52.186;5.688;2023-07-31T09:55:18;18.00;99.90
16417;DHT22;8317;52.186;5.688;2023-07-31T09:57:48;18.00;99.90
16417;DHT22;8317;52.186;5.688;2023-07-31T10:00:16;17.90;99.90
16417;DHT22;8317;52.186;5.688;2023-07-31T10:02:45;17.90;99.90
16417;DHT22;8317;52.186;5.688;2023-07-31T10:05:14;17.80;99.90
16417;DHT22;8317;52.186;5.688;2023-07-31T10:07:43;17.80;99.90
16417;DHT22;8317;52.186;5.688;2023-07-31T10:10:13;18.00;99.90
16417;DHT22;8317;52.186;5.688;2023-07-31T10:12:41;18.10;99.90
16417;DHT22;8317;52.186;5.688;2023-07-31T10:15:10;18.00;99.90
16417;DHT22;8317;52.186;5.688;2023-07-31T10:17:38;18.30;99.90
16417;DHT22;8317;52.186;5.688;2023-07-31T10:20:06;18.30;99.90
16417;DHT22;8317;52.186;5.688;2023-07-31T10:22:34;18.30;99.90
16417;DHT22;8317;52.186;5.688;2023-07-31T10:25:01;18.20;99.90
16417;DHT22;8317;52.186;5.688;2023-07-31T10:27:28;18.30;99.90
16417;DHT22;8317;52.186;5.688;2023-07-31T10:29:57;18.40;99.90
16417;DHT22;8317;52.186;5.688;2023-07-31T10:32:26;18.30;99.90
16417;DHT22;8317;52.186;5.688;2023-07-31T10:34:54;18.20;99.90
16417;DHT22;8317;52.186;5.688;2023-07-31T10:37:23;18.20;99.90
16417;DHT22;8317;52.186;5.688;2023-07-31T10:39:58;18.30;99.90
16417;DHT22;8317;52.186;5.688;2023-07-31T10:42:32;18.20;99.90
16417;DHT22;8317;52.186;5.688;2023-07-31T10:45:03;18.20;99.90
16417;DHT22;8317;52.186;5.688;2023-07-31T10:47:36;18.40;99.90
16417;DHT22;8317;52.186;5.688;2023-07-31T10:50:13;18.30;99.90
16417;DHT22;8317;52.186;5.688;2023-07-31T10:52:42;18.40;99.90
16417;DHT22;8317;52.186;5.688;2023-07-31T10:55:27;18.30;99.90
16417;DHT22;8317;52.186;5.688;2023-07-31T10:57:55;18.40;99.90
16417;DHT22;8317;52.186;5.688;2023-07-31T11:00:25;18.40;99.90
16417;DHT22;8317;52.186;5.688;2023-07-31T11:03:04;18.40;99.90
16417;DHT22;8317;52.186;5.688;2023-07-31T11:05:49;18.30;99.90
16417;DHT22;8317;52.186;5.688;2023-07-31T11:08:18;18.40;99.90
16417;DHT22;8317;52.186;5.688;2023-07-31T11:10:47;18.30;99.90
16417;DHT22;8317;52.186;5.688;2023-07-31T11:13:14;18.40;99.90
16417;DHT22;8317;52.186;5.688;2023-07-31T11:15:41;18.60;99.90
16417;DHT22;8317;52.186;5.688;2023-07-31T11:18:10;18.50;99.90
16417;DHT22;8317;52.186;5.688;2023-07-31T11:20:37;18.60;99.90
16417;DHT22;8317;52.186;5.688;2023-07-31T11:23:07;18.60;99.90
16417;DHT22;8317;52.186;5.688;2023-07-31T11:25:35;18.60;99.90
16417;DHT22;8317;52.186;5.688;2023-07-31T11:28:04;18.60;99.90
16417;DHT22;8317;52.186;5.688;2023-07-31T11:30:32;18.70;99.90
16417;DHT22;8317;52.186;5.688;2023-07-31T11:33:00;18.70;99.90
16417;DHT22;8317;52.186;5.688;2023-07-31T11:35:30;18.70;99.90
16417;DHT22;8317;52.186;5.688;2023-07-31T11:37:57;18.70;99.90
16417;DHT22;8317;52.186;5.688;2023-07-31T11:40:24;18.70;99.90
16417;DHT22;8317;52.186;5.688;2023-07-31T11:42:55;18.60;99.90
16417;DHT22;8317;52.186;5.688;2023-07-31T11:45:25;18.60;99.90
16417;DHT22;8317;52.186;5.688;2023-07-31T11:47:54;18.60;99.90
16417;DHT22;8317;52.186;5.688;2023-07-31T11:50:22;18.60;99.90
16417;DHT22;8317;52.186;5.688;2023-07-31T11:52:56;18.60;99.90
16417;DHT22;8317;52.186;5.688;2023-07-31T11:55:24;18.50;99.90
16417;DHT22;8317;52.186;5.688;2023-07-31T11:57:53;18.60;99.90
16417;DHT22;8317;52.186;5.688;2023-07-31T12:00:21;18.60;99.90
16417;DHT22;8317;52.186;5.688;2023-07-31T12:02:49;18.50;99.90
16417;DHT22;8317;52.186;5.688;2023-07-31T12:05:16;18.50;99.90
16417;DHT22;8317;52.186;5.688;2023-07-31T12:07:48;18.50;99.90
16417;DHT22;8317;52.186;5.688;2023-07-31T12:10:31;18.50;99.90
16417;DHT22;8317;52.186;5.688;2023-07-31T12:13:00;18.50;99.90
16417;DHT22;8317;52.186;5.688;2023-07-31T12:15:45;18.40;99.90
16417;DHT22;8317;52.186;5.688;2023-07-31T12:18:14;18.60;99.90
16417;DHT22;8317;52.186;5.688;2023-07-31T12:20:42;18.50;99.90
16417;DHT22;8317;52.186;5.688;2023-07-31T12:23:17;18.60;99.90
16417;DHT22;8317;52.186;5.688;2023-07-31T12:25:45;18.50;99.90
16417;DHT22;8317;52.186;5.688;2023-07-31T12:28:12;18.50;99.90
16417;DHT22;8317;52.186;5.688;2023-07-31T12:30:40;18.50;99.90
16417;DHT22;8317;52.186;5.688;2023-07-31T12:33:15;18.60;99.90
16417;DHT22;8317;52.186;5.688;2023-07-31T12:35:45;18.70;99.90
16417;DHT22;8317;52.186;5.688;2023-07-31T12:38:12;18.70;99.90
16417;DHT22;8317;52.186;5.688;2023-07-31T12:40:40;18.80;99.90
16417;DHT22;8317;52.186;5.688;2023-07-31T12:43:09;18.90;99.90
16417;DHT22;8317;52.186;5.688;2023-07-31T12:45:36;18.90;99.90
16417;DHT22;8317;52.186;5.688;2023-07-31T12:48:03;18.90;99.90
16417;DHT22;8317;52.186;5.688;2023-07-31T12:50:30;18.90;99.90
16417;DHT22;8317;52.186;5.688;2023-07-31T12:52:57;18.80;99.90
16417;DHT22;8317;52.186;5.688;2023-07-31T12:55:24;18.90;99.90
16417;DHT22;8317;52.186;5.688;2023-07-31T12:57:51;18.90;99.90
16417;DHT22;8317;52.186;5.688;2023-07-31T13:00:19;18.90;99.90
16417;DHT22;8317;52.186;5.688;2023-07-31T13:02:46;18.80;99.90
16417;DHT22;8317;52.186;5.688;2023-07-31T13:05:14;18.80;99.90
16417;DHT22;8317;52.186;5.688;2023-07-31T13:07:41;18.80;99.90
16417;DHT22;8317;52.186;5.688;2023-07-31T13:10:09;18.90;99.90
16417;DHT22;8317;52.186;5.688;2023-07-31T13:12:36;18.90;99.90
16417;DHT22;8317;52.186;5.688;2023-07-31T13:15:03;18.90;99.90
16417;DHT22;8317;52.186;5.688;2023-07-31T13:17:32;19.10;99.90
16417;DHT22;8317;52.186;5.688;2023-07-31T13:19:59;19.20;99.90
16417;DHT22;8317;52.186;5.688;2023-07-31T13:22:26;19.20;99.90
16417;DHT22;8317;52.186;5.688;2023-07-31T13:24:53;19.30;99.90
16417;DHT22;8317;52.186;5.688;2023-07-31T13:27:20;19.30;99.90
16417;DHT22;8317;52.186;5.688;2023-07-31T13:29:47;19.20;99.90
16417;DHT22;8317;52.186;5.688;2023-07-31T13:32:15;19.20;99.90
16417;DHT22;8317;52.186;5.688;2023-07-31T13:34:43;19.20;99.90
16417;DHT22;8317;52.186;5.688;2023-07-31T13:37:10;19.20;99.90
16417;DHT22;8317;52.186;5.688;2023-07-31T13:39:37;19.20;99.90
16417;DHT22;8317;52.186;5.688;2023-07-31T13:42:05;19.20;99.90
16417;DHT22;8317;52.186;5.688;2023-07-31T13:44:33;19.20;99.90
16417;DHT22;8317;52.186;5.688;2023-07-31T13:47:00;19.20;99.90
16417;DHT22;8317;52.186;5.688;2023-07-31T13:49:27;19.10;99.90
16417;DHT22;8317;52.186;5.688;2023-07-31T13:51:56;19.10;99.90
16417;DHT22;8317;52.186;5.688;2023-07-31T13:54:23;19.00;99.90
16417;DHT22;8317;52.186;5.688;2023-07-31T13:56:51;19.10;99.90
16417;DHT22;8317;52.186;5.688;2023-07-31T13:59:18;19.10;99.90
16417;DHT22;8317;52.186;5.688;2023-07-31T14:01:45;19.10;99.90
16417;DHT22;8317;52.186;5.688;2023-07-31T14:04:12;19.10;99.90
16417;DHT22;8317;52.186;5.688;2023-07-31T14:06:39;19.10;99.90
16417;DHT22;8317;52.186;5.688;2023-07-31T14:09:08;18.90;99.90
16417;DHT22;8317;52.186;5.688;2023-07-31T14:11:35;18.80;99.90
16417;DHT22;8317;52.186;5.688;2023-07-31T14:14:02;18.70;99.90
16417;DHT22;8317;52.186;5.688;2023-07-31T14:16:30;18.70;99.90
16417;DHT22;8317;52.186;5.688;2023-07-31T14:18:56;18.60;99.90
16417;DHT22;8317;52.186;5.688;2023-07-31T14:21:24;18.60;99.90
16417;DHT22;8317;52.186;5.688;2023-07-31T14:23:51;18.70;99.90
16417;DHT22;8317;52.186;5.688;2023-07-31T14:26:20;18.70;99.90
16417;DHT22;8317;52.186;5.688;2023-07-31T14:28:46;18.60;99.90
16417;DHT22;8317;52.186;5.688;2023-07-31T14:31:13;18.60;99.90
16417;DHT22;8317;52.186;5.688;2023-07-31T14:33:41;18.60;99.90
16417;DHT22;8317;52.186;5.688;2023-07-31T14:36:07;18.50;99.90
16417;DHT22;8317;52.186;5.688;2023-07-31T14:38:34;18.60;99.90
16417;DHT22;8317;52.186;5.688;2023-07-31T14:41:01;18.50;99.90
16417;DHT22;8317;52.186;5.688;2023-07-31T14:43:29;18.60;99.90
16417;DHT22;8317;52.186;5.688;2023-07-31T14:45:57;18.50;99.90
16417;DHT22;8317;52.186;5.688;2023-07-31T14:48:25;18.60;99.90
16417;DHT22;8317;52.186;5.688;2023-07-31T14:50:52;18.50;99.90
16417;DHT22;8317;52.186;5.688;2023-07-31T14:53:19;18.50;99.90
16417;DHT22;8317;52.186;5.688;2023-07-31T14:55:46;18.60;99.90
16417;DHT22;8317;52.186;5.688;2023-07-31T14:58:13;18.60;99.90
16417;DHT22;8317;52.186;5.688;2023-07-31T15:00:41;18.70;99.90
16417;DHT22;8317;52.186;5.688;2023-07-31T15:03:08;18.70;99.90
16417;DHT22;8317;52.186;5.688;2023-07-31T15:05:35;18.60;99.90
16417;DHT22;8317;52.186;5.688;2023-07-31T15:08:02;18.60;99.90
16417;DHT22;8317;52.186;5.688;2023-07-31T15:10:29;18.60;99.90
16417;DHT22;8317;52.186;5.688;2023-07-31T15:12:56;18.60;99.90
16417;DHT22;8317;52.186;5.688;2023-07-31T15:15:23;18.50;99.90
16417;DHT22;8317;52.186;5.688;2023-07-31T15:17:51;18.50;99.90
16417;DHT22;8317;52.186;5.688;2023-07-31T15:20:18;18.50;99.90
16417;DHT22;8317;52.186;5.688;2023-07-31T15:22:45;18.60;99.90
16417;DHT22;8317;52.186;5.688;2023-07-31T15:25:13;18.50;99.90
16417;DHT22;8317;52.186;5.688;2023-07-31T15:27:40;18.40;99.90
16417;DHT22;8317;52.186;5.688;2023-07-31T15:30:08;18.50;99.90
16417;DHT22;8317;52.186;5.688;2023-07-31T15:32:37;18.50;99.90
16417;DHT22;8317;52.186;5.688;2023-07-31T15:35:06;18.50;99.90
16417;DHT22;8317;52.186;5.688;2023-07-31T15:37:33;18.40;99.90
16417;DHT22;8317;52.186;5.688;2023-07-31T15:40:00;18.40;99.90
16417;DHT22;8317;52.186;5.688;2023-07-31T15:42:27;18.40;99.90
16417;DHT22;8317;52.186;5.688;2023-07-31T15:44:54;18.30;99.90
16417;DHT22;8317;52.186;5.688;2023-07-31T15:47:21;18.40;99.90
16417;DHT22;8317;52.186;5.688;2023-07-31T15:49:48;18.40;99.90